Time;durP1;ratioP1;P1;durP2;ratioP2;P2;SDS_P1;SDS_P2;PMS_P1;PMS_P2;Temp;Humidity;BMP_temperature;BMP_pressure;BME280_temperature;BME280_humidity;BME280_pressure;Samples;Min_cycle;Max_cycle;Signal;HPM_P1;HPM_P2
2022/09/21 00:01:31;;;;;;;15.57;7.05;;;8.50;91.60;;;;;;5054864;28;20055;-38
2022/09/21 00:03:59;;;;;;;18.15;8.38;;;8.50;91.50;;;;;;5053300;28;20025;-38
2022/09/21 00:06:28;;;;;;;14.30;6.57;;;8.40;91.60;;;;;;5054472;28;20025;-40
2022/09/21 00:08:55;;;;;;;10.77;7.55;;;8.40;91.60;;;;;;5054426;28;20389;-38
2022/09/21 00:11:25;;;;;;;8.45;6.25;;;8.40;91.60;;;;;;5054436;28;20520;-38
2022/09/21 00:13:53;;;;;;;10.48;5.95;;;8.40;91.60;;;;;;5054276;28;20083;-38
2022/09/21 00:16:19;;;;;;;10.55;6.35;;;8.40;91.60;;;;;;5054306;28;20423;-38
2022/09/21 00:18:45;;;;;;;11.18;6.75;;;8.40;91.60;;;;;;5054374;28;20017;-38
2022/09/21 00:21:13;;;;;;;10.50;5.78;;;8.40;91.60;;;;;;5054369;28;20029;-38
2022/09/21 00:23:40;;;;;;;7.93;5.75;;;8.40;91.60;;;;;;5054375;28;20078;-38
2022/09/21 00:26:09;;;;;;;14.65;6.22;;;8.40;91.60;;;;;;5054041;28;20053;-38
2022/09/21 00:28:34;;;;;;;13.40;6.88;;;8.30;91.60;;;;;;5054271;28;20507;-38
2022/09/21 00:31:03;;;;;;;11.95;7.07;;;8.30;91.60;;;;;;5054020;28;20049;-38
2022/09/21 00:33:28;;;;;;;15.32;7.65;;;8.30;91.60;;;;;;5054548;28;20108;-38
2022/09/21 00:35:54;;;;;;;16.08;7.53;;;8.20;91.60;;;;;;5054308;28;20068;-38
2022/09/21 00:38:20;;;;;;;15.35;8.10;;;8.20;91.70;;;;;;5054054;28;20092;-38
2022/09/21 00:40:45;;;;;;;10.90;6.93;;;8.20;91.80;;;;;;5052582;28;20025;-40
2022/09/21 00:43:16;;;;;;;14.73;8.60;;;8.10;91.70;;;;;;5054035;28;20071;-41
2022/09/21 00:45:45;;;;;;;10.43;7.18;;;8.20;91.80;;;;;;5054159;28;20469;-39
2022/09/21 00:48:11;;;;;;;10.83;7.03;;;8.10;91.60;;;;;;5052632;28;20025;-38
2022/09/21 00:50:40;;;;;;;16.63;7.05;;;8.00;91.50;;;;;;5053867;28;20091;-37
2022/09/21 00:53:06;;;;;;;12.00;7.03;;;8.00;91.50;;;;;;5052836;28;20025;-38
2022/09/21 00:55:36;;;;;;;16.88;7.75;;;7.90;91.60;;;;;;5054272;28;20125;-38
2022/09/21 00:58:09;;;;;;;17.40;7.72;;;7.80;91.50;;;;;;5053758;28;20071;-38
2022/09/21 01:00:39;;;;;;;10.68;6.53;;;7.70;91.50;;;;;;5053124;28;20025;-38
2022/09/21 01:03:07;;;;;;;11.90;6.55;;;7.70;91.60;;;;;;5053497;28;20018;-39
2022/09/21 01:05:33;;;;;;;13.45;6.97;;;7.60;91.70;;;;;;5053324;28;20021;-39
2022/09/21 01:08:02;;;;;;;15.65;8.32;;;7.60;91.80;;;;;;5053384;28;20029;-38
2022/09/21 01:10:38;;;;;;;16.05;7.00;;;7.70;91.90;;;;;;5053933;28;20040;-38
2022/09/21 01:13:13;;;;;;;12.38;7.13;;;7.70;92.00;;;;;;5053188;28;20013;-38
2022/09/21 01:16:04;;;;;;;11.98;6.35;;;7.70;92.10;;;;;;5053733;28;20032;-39
2022/09/21 01:18:50;;;;;;;13.18;6.88;;;7.70;92.20;;;;;;5052960;28;20532;-38
2022/09/21 01:21:29;;;;;;;13.25;7.65;;;7.70;92.10;;;;;;5053294;28;20098;-39
2022/09/21 01:24:11;;;;;;;15.15;7.05;;;7.70;92.10;;;;;;5053567;28;20027;-39
2022/09/21 01:27:00;;;;;;;9.93;6.63;;;7.70;92.00;;;;;;5053335;28;20024;-38
2022/09/21 01:29:45;;;;;;;10.57;6.18;;;7.70;92.10;;;;;;5053425;28;20082;-39
2022/09/21 01:32:19;;;;;;;12.05;6.28;;;7.70;92.10;;;;;;5053419;28;20029;-38
2022/09/21 01:35:06;;;;;;;20.90;9.90;;;7.70;92.00;;;;;;5052990;28;20033;-38
2022/09/21 01:37:42;;;;;;;10.60;5.88;;;7.80;92.00;;;;;;5053217;28;20024;-38
2022/09/21 01:40:22;;;;;;;11.20;6.35;;;7.80;92.00;;;;;;5053031;28;20025;-38
2022/09/21 01:42:50;;;;;;;10.37;6.20;;;7.80;92.00;;;;;;5053193;28;20116;-38
2022/09/21 01:45:20;;;;;;;11.60;6.00;;;7.80;91.90;;;;;;5053556;28;20075;-39
2022/09/21 01:47:48;;;;;;;11.38;5.60;;;7.80;91.90;;;;;;5052900;28;20017;-43
2022/09/21 01:50:16;;;;;;;11.63;7.60;;;7.80;91.90;;;;;;5051305;28;20127;-39
2022/09/21 01:52:51;;;;;;;8.27;5.93;;;7.80;91.90;;;;;;5053011;28;20039;-39
2022/09/21 01:55:28;;;;;;;10.07;6.70;;;7.80;91.90;;;;;;5052960;28;20029;-40
2022/09/21 01:58:17;;;;;;;8.68;7.07;;;7.80;91.80;;;;;;5053057;28;20431;-40
2022/09/21 02:00:47;;;;;;;7.55;5.55;;;7.70;91.80;;;;;;5052831;28;20037;-40
2022/09/21 02:03:26;;;;;;;7.18;4.43;;;7.60;91.80;;;;;;5052373;28;20028;-39
2022/09/21 02:05:52;;;;;;;7.68;5.18;;;7.50;91.80;;;;;;5052372;28;20037;-39
2022/09/21 02:08:18;;;;;;;8.73;4.93;;;7.40;91.80;;;;;;5052293;28;20104;-39
2022/09/21 02:10:50;;;;;;;7.60;4.78;;;7.40;91.80;;;;;;5052687;28;20100;-38
2022/09/21 02:13:19;;;;;;;7.32;4.70;;;7.30;91.90;;;;;;5055783;28;20104;-38
2022/09/21 02:16:11;;;;;;;9.40;5.20;;;7.30;92.00;;;;;;5056440;28;20025;-43
2022/09/21 02:18:45;;;;;;;9.98;5.03;;;7.40;91.80;;;;;;5056349;28;20212;-39
2022/09/21 02:21:29;;;;;;;15.55;4.90;;;7.30;91.80;;;;;;5056558;28;20025;-39
2022/09/21 02:24:08;;;;;;;6.38;4.65;;;7.20;91.70;;;;;;5056377;28;20087;-38
2022/09/21 02:26:48;;;;;;;6.68;5.28;;;7.20;91.90;;;;;;5056497;28;20388;-38
2022/09/21 02:29:28;;;;;;;7.80;4.90;;;7.20;91.90;;;;;;5056124;28;20358;-38
2022/09/21 02:32:22;;;;;;;8.68;5.35;;;7.10;91.90;;;;;;5055929;28;20029;-39
2022/09/21 02:35:08;;;;;;;12.77;4.40;;;7.10;92.00;;;;;;5055935;28;20021;-42
2022/09/21 02:37:47;;;;;;;8.13;5.38;;;7.10;92.00;;;;;;5056415;28;20056;-38
2022/09/21 02:40:43;;;;;;;8.63;5.20;;;7.10;92.20;;;;;;5056219;28;20032;-38
2022/09/21 02:43:15;;;;;;;8.82;5.18;;;7.10;92.20;;;;;;5056221;28;20380;-38
2022/09/21 02:45:50;;;;;;;8.65;4.97;;;7.10;92.20;;;;;;5056144;28;20061;-38
2022/09/21 02:48:30;;;;;;;8.13;4.82;;;7.10;92.20;;;;;;5055931;28;20084;-38
2022/09/21 02:51:02;;;;;;;7.47;5.05;;;7.10;92.30;;;;;;5055676;28;20049;-39
2022/09/21 02:53:32;;;;;;;10.95;5.10;;;7.10;92.30;;;;;;5056173;28;20021;-37
2022/09/21 02:56:03;;;;;;;7.97;4.60;;;7.10;92.30;;;;;;5056016;28;20021;-38
2022/09/21 02:58:31;;;;;;;5.82;4.13;;;7.10;92.40;;;;;;5055957;28;20483;-38
2022/09/21 03:00:58;;;;;;;13.98;5.07;;;7.10;92.40;;;;;;5055523;28;20376;-38
2022/09/21 03:03:23;;;;;;;14.23;5.45;;;7.10;92.40;;;;;;5056128;28;20465;-40
2022/09/21 03:05:52;;;;;;;7.28;4.65;;;7.00;92.40;;;;;;5055524;28;20079;-39
2022/09/21 03:08:18;;;;;;;9.63;5.40;;;7.00;92.40;;;;;;5055742;28;20473;-39
2022/09/21 03:10:45;;;;;;;6.35;4.40;;;7.00;92.40;;;;;;5055483;28;20025;-39
2022/09/21 03:13:12;;;;;;;10.23;5.45;;;7.00;92.40;;;;;;5055206;28;20025;-39
2022/09/21 03:15:39;;;;;;;10.35;4.55;;;7.00;92.40;;;;;;5055442;28;20021;-38
2022/09/21 03:18:08;;;;;;;7.78;4.50;;;6.90;92.40;;;;;;5055505;28;20428;-37
2022/09/21 03:20:34;;;;;;;10.68;5.18;;;6.90;92.40;;;;;;5055623;28;20119;-38
2022/09/21 03:23:00;;;;;;;8.48;5.10;;;7.00;92.40;;;;;;5055087;28;20024;-38
2022/09/21 03:25:27;;;;;;;7.55;4.72;;;6.90;92.50;;;;;;5055282;28;20073;-38
2022/09/21 03:27:53;;;;;;;9.32;4.78;;;7.00;92.50;;;;;;5055475;28;20044;-40
2022/09/21 03:30:20;;;;;;;5.65;4.38;;;7.00;92.50;;;;;;5055103;28;20075;-38
2022/09/21 03:32:49;;;;;;;10.50;5.03;;;7.10;92.50;;;;;;5055296;28;20021;-38
2022/09/21 03:35:15;;;;;;;10.60;4.93;;;7.10;92.50;;;;;;5053867;28;20017;-38
2022/09/21 03:37:40;;;;;;;11.23;6.80;;;7.10;92.50;;;;;;5055193;28;20104;-38
2022/09/21 03:40:07;;;;;;;12.43;7.20;;;7.10;92.50;;;;;;5054997;28;20148;-38
2022/09/21 03:42:33;;;;;;;13.50;6.80;;;7.10;92.60;;;;;;5054918;28;20021;-38
2022/09/21 03:44:58;;;;;;;17.00;7.13;;;7.10;92.60;;;;;;5054913;28;20112;-38
2022/09/21 03:47:24;;;;;;;10.00;6.75;;;7.10;92.60;;;;;;5054910;28;20078;-38
2022/09/21 03:49:49;;;;;;;13.07;6.10;;;7.10;92.60;;;;;;5054773;28;20366;-38
2022/09/21 03:52:15;;;;;;;11.38;6.45;;;7.10;92.60;;;;;;5055392;28;20025;-38
2022/09/21 03:54:41;;;;;;;17.42;7.75;;;7.10;92.60;;;;;;5054783;28;20048;-38
2022/09/21 03:57:07;;;;;;;13.57;7.55;;;7.10;92.60;;;;;;5054969;28;20025;-38
2022/09/21 03:59:34;;;;;;;10.60;6.70;;;7.10;92.60;;;;;;5054851;28;20029;-38
2022/09/21 04:02:00;;;;;;;16.92;7.78;;;7.00;92.70;;;;;;5054916;28;20033;-38
2022/09/21 04:04:25;;;;;;;11.65;7.22;;;7.00;92.80;;;;;;5054566;28;20376;-38
2022/09/21 04:06:51;;;;;;;17.38;7.03;;;7.00;92.80;;;;;;5054576;28;20029;-38
2022/09/21 04:09:17;;;;;;;17.13;7.75;;;7.00;92.90;;;;;;5053164;28;20028;-38
2022/09/21 04:11:44;;;;;;;10.60;7.05;;;7.00;92.90;;;;;;5054612;28;20071;-39
2022/09/21 04:14:11;;;;;;;13.93;7.18;;;7.10;92.90;;;;;;5054326;28;20028;-37
2022/09/21 04:16:36;;;;;;;9.25;6.07;;;7.10;93.00;;;;;;5054527;28;20025;-39
2022/09/21 04:19:02;;;;;;;13.70;7.30;;;7.10;93.00;;;;;;5054209;28;20017;-40
2022/09/21 04:21:28;;;;;;;14.55;6.97;;;7.10;93.10;;;;;;5054354;28;20047;-38
2022/09/21 04:23:54;;;;;;;8.80;5.35;;;7.00;93.10;;;;;;5054240;28;20023;-38
2022/09/21 04:26:29;;;;;;;9.88;6.40;;;7.00;93.00;;;;;;5052912;28;20021;-38
2022/09/21 04:28:55;;;;;;;10.75;5.90;;;7.00;93.00;;;;;;5036390;28;20063;-39
2022/09/21 04:31:23;;;;;;;13.88;6.35;;;7.00;93.00;;;;;;5052720;28;20040;-38
2022/09/21 04:33:50;;;;;;;10.77;6.47;;;6.90;93.00;;;;;;5053662;28;20087;-38
2022/09/21 04:36:17;;;;;;;8.52;6.40;;;6.90;92.90;;;;;;5053249;28;20094;-38
2022/09/21 04:38:43;;;;;;;12.18;5.43;;;6.80;92.80;;;;;;5054185;28;20040;-38
2022/09/21 04:41:09;;;;;;;12.80;7.05;;;6.80;92.80;;;;;;5053705;28;20115;-38
2022/09/21 04:43:35;;;;;;;11.23;6.60;;;6.80;92.80;;;;;;5053779;28;20060;-38
2022/09/21 04:46:05;;;;;;;8.95;6.53;;;6.80;92.80;;;;;;5053742;28;20512;-38
2022/09/21 04:48:31;;;;;;;13.07;5.97;;;6.80;92.80;;;;;;5053750;28;20025;-38
2022/09/21 04:50:57;;;;;;;10.75;6.53;;;6.70;92.80;;;;;;5053328;28;20445;-38
2022/09/21 04:53:22;;;;;;;14.65;7.40;;;6.70;92.80;;;;;;5053541;28;20079;-38
2022/09/21 04:55:48;;;;;;;10.77;7.15;;;6.70;92.80;;;;;;5053313;28;20021;-38
2022/09/21 04:58:14;;;;;;;9.48;6.25;;;6.70;92.90;;;;;;5053473;28;20478;-39
2022/09/21 17:50:56;;;;;;;4.00;1.95;;;13.90;65.20;;;;;;5069935;28;20387;-38
2022/09/21 17:53:39;;;;;;;6.32;2.63;;;13.80;65.60;;;;;;5052247;28;20035;-38
2022/09/21 17:56:17;;;;;;;7.13;1.80;;;13.80;66.00;;;;;;5069311;28;20067;-39
2022/09/21 17:59:31;;;;;;;5.00;1.50;;;13.80;65.90;;;;;;5070118;28;20056;-38
2022/09/21 18:01:58;;;;;;;5.72;1.98;;;13.80;65.60;;;;;;5060452;28;20033;-39
2022/09/21 18:04:26;;;;;;;6.50;2.13;;;13.80;65.80;;;;;;5069935;28;20029;-38
2022/09/21 18:06:53;;;;;;;6.25;2.38;;;13.80;65.60;;;;;;5069851;28;20024;-38
2022/09/21 18:09:19;;;;;;;11.10;3.78;;;13.70;66.20;;;;;;5069849;28;20029;-40
2022/09/21 18:12:05;;;;;;;8.18;4.22;;;13.60;66.90;;;;;;5069692;28;20384;-39
2022/09/21 18:15:11;;;;;;;9.85;3.67;;;13.50;67.50;;;;;;5069628;28;20477;-39
2022/09/21 18:18:01;;;;;;;6.55;4.13;;;13.30;67.90;;;;;;5057244;28;20048;-46
2022/09/21 18:20:49;;;;;;;8.13;4.38;;;13.20;68.80;;;;;;5069926;28;20353;-38
2022/09/21 18:23:31;;;;;;;6.65;3.75;;;13.10;69.40;;;;;;5051628;28;20028;-38
2022/09/21 18:25:58;;;;;;;6.28;2.55;;;13.00;69.70;;;;;;5068110;28;20095;-38
2022/09/21 18:28:39;;;;;;;6.65;2.88;;;13.00;70.30;;;;;;5069315;28;20032;-39
2022/09/21 18:31:38;;;;;;;8.18;4.50;;;12.80;70.80;;;;;;5069368;28;20016;-38
2022/09/21 18:34:40;;;;;;;7.05;3.80;;;12.80;71.20;;;;;;5069196;28;20083;-39
2022/09/21 18:37:30;;;;;;;11.82;5.15;;;12.80;71.70;;;;;;5069578;28;20021;-38
2022/09/21 18:40:20;;;;;;;20.98;4.65;;;12.70;72.30;;;;;;5069185;28;20070;-39
2022/09/21 18:43:09;;;;;;;10.77;4.68;;;12.60;72.60;;;;;;5068935;28;20464;-40
2022/09/21 18:45:43;;;;;;;10.10;4.35;;;12.50;73.00;;;;;;5068768;28;20033;-39
2022/09/21 18:48:30;;;;;;;10.23;5.03;;;12.50;73.70;;;;;;5069534;28;20064;-40
2022/09/21 18:51:20;;;;;;;16.38;5.20;;;12.40;74.30;;;;;;5067745;28;20037;-38
2022/09/21 18:53:58;;;;;;;11.10;4.50;;;12.30;74.50;;;;;;5068921;28;20078;-39
2022/09/21 18:56:35;;;;;;;12.02;4.97;;;12.30;74.90;;;;;;5069123;28;20338;-40
2022/09/21 18:59:06;;;;;;;14.13;5.32;;;12.20;75.30;;;;;;5068797;28;20033;-40
2022/09/21 19:01:32;;;;;;;11.65;4.43;;;12.20;75.50;;;;;;5058395;28;20029;-39
2022/09/21 19:04:00;;;;;;;11.75;5.47;;;12.20;75.80;;;;;;5055731;28;20071;-38
2022/09/21 19:06:50;;;;;;;10.48;5.88;;;12.10;75.90;;;;;;5055381;28;20032;-40
2022/09/21 19:09:36;;;;;;;;;;;12.00;76.00;;;;;;5038442;28;20509;-37
2022/09/21 19:12:20;;;;;;;14.98;7.55;;;12.00;76.40;;;;;;5055507;28;19904;-38
2022/09/21 19:15:13;;;;;;;19.17;8.50;;;12.00;76.80;;;;;;5055593;28;20492;-39
2022/09/21 19:17:53;;;;;;;14.55;7.93;;;12.00;77.20;;;;;;5056035;28;20071;-40
2022/09/21 19:20:40;;;;;;;11.40;6.60;;;11.90;78.50;;;;;;5055670;28;20029;-39
2022/09/21 19:23:14;;;;;;;10.70;6.50;;;11.80;79.70;;;;;;5055600;28;20037;-38
2022/09/21 19:25:50;;;;;;;18.73;7.00;;;11.70;80.00;;;;;;5055625;28;20024;-39
2022/09/21 19:28:35;;;;;;;11.30;6.57;;;11.60;80.50;;;;;;5055470;28;20029;-39
2022/09/21 19:31:13;;;;;;;11.15;6.50;;;11.60;80.80;;;;;;5054101;28;20543;-39
2022/09/21 19:33:39;;;;;;;15.85;7.68;;;11.60;81.10;;;;;;5055207;28;20039;-39
2022/09/21 19:36:07;;;;;;;14.82;6.75;;;11.50;81.40;;;;;;5055213;28;20465;-38
2022/09/21 19:38:33;;;;;;;12.60;6.43;;;11.50;81.70;;;;;;5054916;28;20025;-40
2022/09/21 19:41:14;;;;;;;18.17;7.18;;;11.40;82.10;;;;;;5055175;28;20025;-40
2022/09/21 19:43:43;;;;;;;;;;;11.30;82.30;;;;;;5055167;28;20453;-38
2022/09/21 19:46:28;;;;;;;17.15;7.80;;;11.30;82.60;;;;;;5054873;28;19912;-39
2022/09/21 19:49:01;;;;;;;16.17;7.63;;;11.30;83.10;;;;;;5054699;28;20096;-39
2022/09/21 19:51:39;;;;;;;23.63;9.75;;;11.30;83.10;;;;;;5054646;28;20032;-39
2022/09/21 19:59:41;;;;;;;27.83;13.27;;;11.20;83.60;;;;;;5054622;28;20182;-38
2022/09/21 20:02:15;;;;;;;34.15;13.10;;;11.10;83.70;;;;;;5054271;28;20053;-38
2022/09/21 20:04:49;;;;;;;29.25;12.23;;;11.10;83.90;;;;;;5054555;28;20096;-38
2022/09/21 20:07:34;;;;;;;25.38;12.02;;;11.10;84.00;;;;;;5054533;28;20484;-39
2022/09/21 20:10:12;;;;;;;28.52;12.45;;;11.10;84.20;;;;;;5054983;28;20036;-39
2022/09/21 20:12:55;;;;;;;19.58;8.55;;;11.00;84.30;;;;;;5053075;28;20025;-46
2022/09/21 20:15:28;;;;;;;23.90;9.15;;;11.00;84.40;;;;;;5054385;28;20365;-41
2022/09/21 20:18:08;;;;;;;18.05;9.35;;;10.90;84.50;;;;;;5053948;28;20108;-38
2022/09/21 20:20:34;;;;;;;27.70;12.75;;;10.90;84.70;;;;;;5054241;28;20024;-40
2022/09/21 20:23:00;;;;;;;21.00;10.27;;;10.80;84.90;;;;;;5052653;28;20374;-39
2022/09/21 20:25:35;;;;;;;26.90;9.95;;;10.80;85.10;;;;;;5053766;28;20036;-39
2022/09/21 20:28:02;;;;;;;19.90;9.68;;;10.80;85.20;;;;;;5053755;28;20047;-39
2022/09/21 20:30:33;;;;;;;21.80;10.40;;;10.80;85.40;;;;;;5053654;28;20040;-39
2022/09/21 20:33:01;;;;;;;;;;;10.80;85.60;;;;;;5054594;28;20017;-38
2022/09/21 20:35:29;;;;;;;20.90;10.50;;;10.70;85.40;;;;;;5053695;28;19912;-39
2022/09/21 20:37:55;;;;;;;18.58;10.25;;;10.70;85.50;;;;;;5052260;28;20025;-39
2022/09/21 20:40:25;;;;;;;19.48;11.13;;;10.60;85.60;;;;;;5053695;28;20067;-39
2022/09/21 20:42:52;;;;;;;20.75;10.10;;;10.50;85.70;;;;;;5053838;28;20480;-39
2022/09/21 20:45:18;;;;;;;17.52;9.38;;;10.50;85.80;;;;;;5053871;28;20103;-39
2022/09/21 20:47:44;;;;;;;18.35;10.23;;;10.50;85.80;;;;;;5053577;28;20040;-38
2022/09/21 20:50:10;;;;;;;18.35;10.15;;;10.50;86.10;;;;;;5053146;28;20420;-38
2022/09/21 20:52:39;;;;;;;16.70;9.00;;;10.50;86.30;;;;;;5053540;28;20461;-39
2022/09/21 20:55:07;;;;;;;20.60;8.93;;;10.30;86.30;;;;;;5053878;28;20100;-39
2022/09/21 20:57:33;;;;;;;17.58;9.52;;;10.30;86.20;;;;;;5053711;28;20025;-38
2022/09/21 20:59:59;;;;;;;14.85;7.35;;;10.30;86.10;;;;;;5053380;28;20040;-38
2022/09/21 21:02:25;;;;;;;14.85;7.82;;;10.30;86.00;;;;;;5053574;28;20060;-39
2022/09/21 21:04:51;;;;;;;15.00;6.70;;;10.30;86.10;;;;;;5053011;28;20029;-38
2022/09/21 21:07:16;;;;;;;12.02;7.40;;;10.20;86.00;;;;;;5053511;28;20036;-38
2022/09/21 21:09:42;;;;;;;18.85;6.35;;;10.20;86.10;;;;;;5053461;28;20398;-39
2022/09/21 21:12:09;;;;;;;10.90;6.70;;;10.20;86.10;;;;;;5053445;28;20028;-38
2022/09/21 21:14:35;;;;;;;9.95;6.28;;;10.20;85.80;;;;;;5053222;28;20032;-38
2022/09/21 21:17:01;;;;;;;9.38;6.47;;;10.20;85.80;;;;;;5053509;28;20028;-38
2022/09/21 21:19:27;;;;;;;14.27;5.97;;;10.20;85.80;;;;;;5051874;28;20025;-39
2022/09/21 21:21:52;;;;;;;19.48;7.35;;;10.20;85.70;;;;;;5053466;28;20025;-39
2022/09/21 21:27:02;;;;;;;11.85;5.85;;;10.10;85.70;;;;;;5053486;28;20036;-39
2022/09/21 21:29:29;;;;;;;10.32;6.25;;;10.00;85.70;;;;;;5051702;28;20029;-38
2022/09/21 21:31:54;;;;;;;14.85;7.47;;;10.00;85.80;;;;;;5052969;28;20105;-38
2022/09/21 21:34:22;;;;;;;10.35;6.55;;;10.00;85.90;;;;;;5053059;28;20044;-38
2022/09/21 21:36:48;;;;;;;15.68;7.20;;;9.90;86.00;;;;;;5051638;28;20496;-38
2022/09/21 21:39:13;;;;;;;16.52;7.85;;;9.90;86.10;;;;;;5052973;28;20025;-38
2022/09/21 21:41:39;;;;;;;12.07;5.90;;;9.90;86.10;;;;;;5053415;28;20104;-39
2022/09/21 21:44:05;;;;;;;11.05;6.13;;;9.90;86.00;;;;;;5051454;28;20108;-38
2022/09/21 21:46:30;;;;;;;12.20;6.80;;;9.80;85.80;;;;;;5053707;28;20033;-38
2022/09/21 21:48:56;;;;;;;13.40;6.53;;;9.80;85.90;;;;;;5052488;28;20468;-38
2022/09/21 21:51:21;;;;;;;15.32;8.27;;;9.80;86.00;;;;;;5052597;28;20056;-37
2022/09/21 21:53:47;;;;;;;13.77;6.63;;;9.70;86.00;;;;;;5052744;28;20025;-38
2022/09/21 21:56:15;;;;;;;15.77;9.00;;;9.70;86.00;;;;;;5052659;28;20048;-39
2022/09/21 21:58:41;;;;;;;10.15;6.07;;;9.60;86.00;;;;;;5052608;28;20043;-38
2022/09/21 22:01:17;;;;;;;9.27;6.10;;;9.60;86.20;;;;;;5051380;28;20219;-38
2022/09/21 22:03:43;;;;;;;15.75;7.07;;;9.60;86.20;;;;;;5053322;28;20058;-40
2022/09/21 22:06:09;;;;;;;13.30;6.65;;;9.60;86.20;;;;;;5053057;28;20025;-38
2022/09/21 22:08:37;;;;;;;16.80;6.43;;;9.60;86.30;;;;;;5052567;28;20096;-39
2022/09/21 22:11:03;;;;;;;13.43;6.40;;;9.60;86.30;;;;;;5053013;28;20363;-38
2022/09/21 22:13:35;;;;;;;13.52;6.40;;;9.60;86.30;;;;;;5052784;28;20068;-39
2022/09/21 22:16:13;;;;;;;10.80;5.07;;;9.60;86.10;;;;;;5052462;28;20025;-39
2022/09/21 22:18:39;;;;;;;11.63;5.40;;;9.50;86.10;;;;;;5052480;28;20021;-38
2022/09/21 22:21:08;;;;;;;10.77;5.63;;;9.50;86.10;;;;;;5052485;28;20037;-37
2022/09/21 22:23:34;;;;;;;7.05;4.85;;;9.50;86.10;;;;;;5052495;28;20112;-38
2022/09/21 22:26:10;;;;;;;13.13;5.70;;;9.50;86.20;;;;;;5052767;28;20101;-40
2022/09/21 22:28:37;;;;;;;6.97;4.97;;;9.40;86.10;;;;;;5051171;28;20032;-38
2022/09/21 22:31:11;;;;;;;9.07;5.38;;;9.40;86.20;;;;;;5052379;28;20037;-38
2022/09/21 22:33:37;;;;;;;7.68;5.55;;;9.50;86.10;;;;;;5052474;28;20486;-38
2022/09/21 22:36:24;;;;;;;7.75;5.32;;;9.50;86.10;;;;;;5053340;28;20108;-38
2022/09/21 22:38:50;;;;;;;8.68;6.43;;;9.50;85.80;;;;;;5056506;28;20048;-38
2022/09/21 22:41:22;;;;;;;11.18;7.57;;;9.40;85.90;;;;;;5056215;28;20033;-37
2022/09/21 22:43:51;;;;;;;12.98;7.65;;;9.30;86.10;;;;;;5056417;28;20041;-38
2022/09/21 22:46:17;;;;;;;17.30;8.27;;;9.30;86.40;;;;;;5054654;28;20028;-38
2022/09/21 22:48:44;;;;;;;13.55;8.75;;;9.20;86.60;;;;;;5055933;28;20083;-38
2022/09/21 22:51:11;;;;;;;14.23;7.38;;;9.20;86.50;;;;;;5056276;28;20017;-37
2022/09/21 22:53:36;;;;;;;12.60;8.00;;;9.20;86.50;;;;;;5055875;28;20033;-39
2022/09/21 22:56:30;;;;;;;16.77;8.27;;;9.10;86.80;;;;;;5056021;28;20090;-38
2022/09/21 22:58:57;;;;;;;15.75;7.45;;;9.10;87.10;;;;;;5055521;28;20056;-37
2022/09/21 23:01:29;;;;;;;12.95;7.30;;;9.00;87.30;;;;;;5055886;28;20017;-37
2022/09/21 23:03:57;;;;;;;18.20;7.45;;;9.00;87.40;;;;;;5055727;28;20021;-37
2022/09/21 23:06:25;;;;;;;12.45;6.70;;;9.00;87.50;;;;;;5055727;28;20036;-39
2022/09/21 23:08:53;;;;;;;16.27;7.35;;;9.00;87.50;;;;;;5056247;28;20024;-38
2022/09/21 23:11:24;;;;;;;11.30;6.97;;;8.90;87.50;;;;;;5054325;28;20384;-39
2022/09/21 23:13:50;;;;;;;9.65;6.35;;;8.90;87.50;;;;;;5055706;28;20032;-38
2022/09/21 23:16:16;;;;;;;12.65;6.53;;;9.00;87.40;;;;;;5055532;28;20017;-38
2022/09/21 23:18:43;;;;;;;11.77;6.25;;;8.90;87.40;;;;;;5055322;28;20033;-38
2022/09/21 23:21:17;;;;;;;10.02;6.05;;;9.00;87.40;;;;;;5055316;28;20029;-41
2022/09/21 23:23:44;;;;;;;10.32;5.65;;;9.00;87.40;;;;;;5055909;28;20031;-38
2022/09/21 23:26:16;;;;;;;10.80;5.70;;;9.00;87.30;;;;;;5055399;28;20025;-38
2022/09/21 23:28:44;;;;;;;9.23;5.88;;;9.00;87.20;;;;;;5055550;28;20057;-38
2022/09/21 23:31:12;;;;;;;11.00;5.90;;;8.90;87.10;;;;;;5055317;28;20013;-39
2022/09/21 23:33:40;;;;;;;10.63;5.45;;;8.90;87.10;;;;;;5054400;28;20069;-47
2022/09/21 23:36:08;;;;;;;11.80;6.05;;;9.00;87.10;;;;;;5055479;28;20339;-40
2022/09/21 23:38:35;;;;;;;7.63;5.28;;;8.90;87.10;;;;;;5055763;28;20381;-38
2022/09/21 23:41:07;;;;;;;8.80;6.10;;;8.80;87.30;;;;;;5055257;28;20024;-39
2022/09/21 23:43:33;;;;;;;13.18;6.10;;;8.80;87.10;;;;;;5055361;28;20116;-39
2022/09/21 23:45:59;;;;;;;12.00;6.57;;;8.80;87.20;;;;;;5054014;28;20538;-38
2022/09/21 23:48:28;;;;;;;12.20;5.57;;;8.70;87.40;;;;;;5055880;28;20033;-38
2022/09/21 23:50:55;;;;;;;8.27;5.32;;;8.60;87.60;;;;;;5054956;28;20049;-38
2022/09/21 23:53:22;;;;;;;9.57;5.68;;;8.50;87.70;;;;;;5055741;28;20381;-39
2022/09/21 23:55:48;;;;;;;8.35;5.30;;;8.50;87.80;;;;;;5054720;28;20025;-38
2022/09/21 23:58:14;;;;;;;10.88;5.53;;;8.50;88.00;;;;;;5054916;28;20021;-38
